Bluff Dale, Texas
Current Conditions -  °F | °C
As of 7:55 AM on Saturday 25 Oct 2014 (Local Time) from KSEP Reporting Station
Clear Clear  
Wind Chill: 61°   Ceiling: Unl
Heat Index: 61°   Visibility: 10mi
Dew Point: 57°   Wind: 3mph
Humidity: 86%   Direction: 180°S
Pressure: 30.16"   Gusts: NA
Location:  32.35°N, 98.02°W
Report Text: KSEP 251255Z AUTO 18003KT 10SM CLR 16/14 A3016 RMK AO2 T01610137
Loading
Personal Weather Stations






























Interactive Weather Map
Tropical Storm Tracking
New forecast layout! Learn more

10-Day Weather Forecast

Advertisements
Track Severe Weather on mobile